createdAt,value
2023-04-05T00:02:18.730Z,101271.22
2023-04-05T00:04:50.753Z,101264.81
2023-04-05T00:07:18.961Z,101271.56
2023-04-05T00:09:45.442Z,101257.88
2023-04-05T00:12:14.022Z,101261.88
2023-04-05T00:14:42.810Z,101258.94
2023-04-05T00:17:11.178Z,101257.72
2023-04-05T00:19:39.254Z,101252.88
2023-04-05T00:22:05.699Z,101261.75
2023-04-05T00:24:33.671Z,101255.13
2023-04-05T00:27:01.179Z,101255.13
2023-04-05T00:29:27.776Z,101254.16
2023-04-05T00:31:56.679Z,101253.16
2023-04-05T00:34:23.503Z,101250.81
2023-04-05T00:36:49.994Z,101252.13
2023-04-05T00:39:18.966Z,101240.47
2023-04-05T00:41:46.962Z,101241.06
2023-04-05T00:44:15.215Z,101252.00
2023-04-05T00:46:42.243Z,101239.09
2023-04-05T00:49:09.402Z,101252.28
2023-04-05T00:51:38.288Z,101250.25
2023-04-05T00:54:06.265Z,101241.13
2023-04-05T00:56:33.069Z,101236.44
2023-04-05T00:58:59.518Z,101234.94
2023-04-05T01:01:27.820Z,101234.66
2023-04-05T01:04:00.024Z,101237.88
2023-04-05T01:06:59.775Z,101233.53
2023-04-05T01:09:30.314Z,101233.38
2023-04-05T01:12:01.168Z,101230.06
2023-04-05T01:14:27.500Z,101225.47
2023-04-05T01:16:58.461Z,101231.00
2023-04-05T01:19:29.592Z,101225.28
2023-04-05T01:22:16.094Z,101213.44
2023-04-05T01:25:02.869Z,101221.66
2023-04-05T01:27:47.943Z,101211.59
2023-04-05T01:30:39.133Z,101212.38
2023-04-05T01:33:19.221Z,101214.97
2023-04-05T01:35:55.470Z,101220.19
2023-04-05T01:38:25.310Z,101209.78
2023-04-05T01:40:56.365Z,101206.22
2023-04-05T01:43:22.839Z,101209.81
2023-04-05T01:45:49.321Z,101209.50
2023-04-05T01:48:16.113Z,101209.81
2023-04-05T01:50:42.728Z,101198.72
2023-04-05T01:53:09.812Z,101203.78
2023-04-05T01:55:36.182Z,101203.06
2023-04-05T01:58:02.774Z,101196.34
2023-04-05T02:00:29.253Z,101197.06
2023-04-05T02:02:55.933Z,101199.06
2023-04-05T02:05:22.337Z,101198.66
2023-04-05T02:07:51.388Z,101200.53
2023-04-05T02:10:18.624Z,101188.63
2023-04-05T02:12:45.064Z,101187.19
2023-04-05T02:15:12.352Z,101194.38
2023-04-05T02:17:45.610Z,101186.28
2023-04-05T02:20:15.752Z,101190.56
2023-04-05T02:22:45.612Z,101187.41
2023-04-05T02:25:13.075Z,101191.44
2023-04-05T02:27:41.353Z,101188.16
2023-04-05T02:30:08.836Z,101191.19
2023-04-05T02:32:35.424Z,101195.66
2023-04-05T02:35:02.726Z,101189.09
2023-04-05T02:37:29.151Z,101188.03
2023-04-05T02:39:55.622Z,101190.56
2023-04-05T02:42:22.299Z,101187.34
2023-04-05T02:44:48.892Z,101187.44
2023-04-05T02:47:21.500Z,101193.25
2023-04-05T02:49:48.810Z,101192.63
2023-04-05T02:52:15.968Z,101201.25
2023-04-05T02:54:43.744Z,101194.09
2023-04-05T02:57:11.601Z,101196.88
2023-04-05T02:59:39.061Z,101199.75
2023-04-05T03:02:06.401Z,101193.22
2023-04-05T03:04:34.588Z,101187.16
2023-04-05T03:07:02.923Z,101190.06
2023-04-05T03:09:33.515Z,101187.63
2023-04-05T03:12:03.771Z,101185.22
2023-04-05T03:14:30.668Z,101175.34
2023-04-05T03:16:59.657Z,101177.16
2023-04-05T03:19:27.134Z,101177.44
2023-04-05T03:21:53.825Z,101178.72
2023-04-05T03:24:22.539Z,101170.66
2023-04-05T03:26:49.480Z,101160.41
2023-04-05T03:29:17.163Z,101172.25
2023-04-05T03:31:44.750Z,101177.78
2023-04-05T03:34:11.420Z,101172.41
2023-04-05T03:36:43.773Z,101183.69
2023-04-05T03:39:14.082Z,101179.59
2023-04-05T03:41:41.162Z,101178.19
2023-04-05T03:44:09.048Z,101177.16
2023-04-05T03:46:38.236Z,101182.13
2023-04-05T03:49:06.063Z,101180.16
2023-04-05T03:51:32.644Z,101181.38
2023-04-05T03:53:59.215Z,101171.34
2023-04-05T03:56:25.716Z,101172.25
2023-04-05T03:58:53.231Z,101171.50
2023-04-05T04:01:19.781Z,101164.22
2023-04-05T04:03:46.171Z,101166.53
2023-04-05T04:06:17.789Z,101167.72
2023-04-05T04:08:48.205Z,101170.88
2023-04-05T04:11:14.684Z,101171.06
2023-04-05T04:13:41.158Z,101170.41
2023-04-05T04:16:07.791Z,101166.06
2023-04-05T04:18:36.665Z,101180.31
2023-04-05T04:21:07.050Z,101169.13
2023-04-05T04:23:40.134Z,101168.38
2023-04-05T04:26:06.542Z,101172.72
2023-04-05T04:28:34.768Z,101173.53
2023-04-05T04:31:05.026Z,101167.78
2023-04-05T04:33:31.558Z,101164.94
2023-04-05T04:35:58.070Z,101167.31
2023-04-05T04:38:27.074Z,101159.41
2023-04-05T04:40:58.155Z,101162.38
2023-04-05T04:43:26.730Z,101163.00
2023-04-05T04:46:01.586Z,101161.53
2023-04-05T04:48:27.958Z,101165.94
2023-04-05T04:50:54.675Z,101165.47
2023-04-05T04:53:24.188Z,101159.00
2023-04-05T04:55:55.109Z,101164.25
2023-04-05T04:58:21.428Z,101168.47
2023-04-05T05:00:48.361Z,101172.28
2023-04-05T05:03:14.882Z,101182.69
2023-04-05T05:05:45.616Z,101172.53
2023-04-05T05:08:12.825Z,101170.34
2023-04-05T05:10:39.594Z,101171.00
2023-04-05T05:13:06.548Z,101174.97
2023-04-05T05:15:32.939Z,101165.34
2023-04-05T05:17:59.556Z,101162.88
2023-04-05T05:20:28.778Z,101167.00
2023-04-05T05:22:55.998Z,101166.84
2023-04-05T05:25:22.780Z,101173.41
2023-04-05T05:27:50.980Z,101173.34
2023-04-05T05:30:18.784Z,101177.31
2023-04-05T05:32:47.409Z,101176.41
2023-04-05T05:35:14.001Z,101177.25
2023-04-05T05:37:40.811Z,101171.41
2023-04-05T05:40:07.802Z,101178.75
2023-04-05T05:42:34.218Z,101174.22
2023-04-05T05:45:06.817Z,101176.66
2023-04-05T05:47:35.586Z,101180.25
2023-04-05T05:50:02.015Z,101178.94
2023-04-05T05:52:28.471Z,101183.03
2023-04-05T05:54:54.894Z,101176.66
2023-04-05T05:57:21.343Z,101182.78
2023-04-05T05:59:47.760Z,101184.66
2023-04-05T06:02:14.576Z,101189.31
2023-04-05T06:04:41.856Z,101183.63
2023-04-05T06:07:08.414Z,101190.50
2023-04-05T06:09:37.437Z,101190.47
2023-04-05T06:12:03.998Z,101193.22
2023-04-05T06:14:30.497Z,101198.16
2023-04-05T06:16:57.397Z,101190.41
2023-04-05T06:19:23.946Z,101195.69
2023-04-05T06:21:50.592Z,101190.97
2023-04-05T06:24:17.083Z,101198.44
2023-04-05T06:26:43.416Z,101190.88
2023-04-05T06:29:09.838Z,101193.78
2023-04-05T06:31:36.578Z,101192.22
2023-04-05T06:34:03.491Z,101194.19
2023-04-05T06:36:31.950Z,101180.75
2023-04-05T06:39:01.048Z,101184.16
2023-04-05T06:41:35.013Z,101182.13
2023-04-05T06:44:01.514Z,101178.88
2023-04-05T06:46:32.943Z,101184.53
2023-04-05T06:49:02.249Z,101181.34
2023-04-05T06:51:30.929Z,101187.53
2023-04-05T06:53:57.331Z,101183.50
2023-04-05T06:56:23.716Z,101184.88
2023-04-05T06:58:53.047Z,101183.59
2023-04-05T07:01:19.500Z,101175.41
2023-04-05T07:03:46.199Z,101186.44
2023-04-05T07:06:12.664Z,101185.88
2023-04-05T07:08:39.283Z,101190.69
2023-04-05T07:11:05.815Z,101177.31
2023-04-05T07:13:32.489Z,101189.34
2023-04-05T07:16:03.338Z,101186.91
2023-04-05T07:18:32.517Z,101188.06
2023-04-05T07:21:03.838Z,101181.25
2023-04-05T07:23:30.851Z,101176.00
2023-04-05T07:26:04.984Z,101174.34
2023-04-05T07:28:35.621Z,101179.31
2023-04-05T07:31:09.152Z,101185.41
2023-04-05T07:33:35.692Z,101172.97
2023-04-05T07:36:03.431Z,101185.00
2023-04-05T07:38:30.929Z,101169.56
2023-04-05T07:40:59.682Z,101172.72
2023-04-05T07:43:28.669Z,101179.38
2023-04-05T07:46:02.391Z,101174.72
2023-04-05T07:48:29.255Z,101177.25
2023-04-05T07:50:55.649Z,101173.91
2023-04-05T07:53:27.087Z,101166.91
2023-04-05T07:55:53.584Z,101174.03
2023-04-05T07:58:19.915Z,101171.38
2023-04-05T08:00:46.372Z,101177.69
2023-04-05T08:03:12.848Z,101183.25
2023-04-05T08:05:39.358Z,101177.34
2023-04-05T08:08:08.907Z,101180.97
2023-04-05T08:10:39.947Z,101182.38
2023-04-05T08:13:08.112Z,101182.03
2023-04-05T08:15:37.119Z,101179.19
2023-04-05T08:18:03.897Z,101168.28
2023-04-05T08:20:30.478Z,101176.41
2023-04-05T08:22:56.918Z,101173.13
2023-04-05T08:25:23.306Z,101175.03
2023-04-05T08:27:52.468Z,101183.28
2023-04-05T08:30:19.941Z,101174.34
2023-04-05T08:32:48.966Z,101170.03
2023-04-05T08:35:16.103Z,101182.22
2023-04-05T08:37:42.513Z,101171.44
2023-04-05T08:40:12.184Z,101175.50
2023-04-05T08:42:57.410Z,101168.31
2023-04-05T08:45:25.846Z,101178.50
2023-04-05T08:47:56.044Z,101174.19
2023-04-05T08:50:24.458Z,101179.94
2023-04-05T08:52:50.985Z,101174.47
2023-04-05T08:55:17.400Z,101165.06
2023-04-05T08:57:49.827Z,101171.91
2023-04-05T09:00:17.956Z,101167.59
2023-04-05T09:02:48.924Z,101166.84
2023-04-05T09:05:19.086Z,101166.03
2023-04-05T09:07:47.904Z,101161.31
2023-04-05T09:10:14.691Z,101166.16
2023-04-05T09:12:41.288Z,101161.97
2023-04-05T09:15:08.391Z,101156.53
2023-04-05T09:17:37.243Z,101161.94
2023-04-05T09:20:03.873Z,101149.41
2023-04-05T09:22:30.353Z,101157.19
2023-04-05T09:24:56.728Z,101157.56
2023-04-05T09:27:23.363Z,101158.34
2023-04-05T09:29:50.494Z,101154.69
2023-04-05T09:32:21.151Z,101149.44
2023-04-05T09:34:48.191Z,101152.75
2023-04-05T09:37:22.173Z,101148.25
2023-04-05T09:39:51.510Z,101151.53
2023-04-05T09:42:19.732Z,101149.97
2023-04-05T09:44:57.955Z,101142.31
2023-04-05T09:47:34.650Z,101141.28
2023-04-05T09:50:18.353Z,101124.81
2023-04-05T09:52:45.521Z,101139.81
2023-04-05T09:55:15.270Z,101136.81
2023-04-05T09:57:43.866Z,101130.94
2023-04-05T10:00:22.205Z,101128.00
2023-04-05T10:02:53.438Z,101126.81
2023-04-05T10:05:24.263Z,101128.19
2023-04-05T10:07:52.322Z,101126.59
2023-04-05T10:10:19.269Z,101131.81
2023-04-05T10:12:47.952Z,101131.16
2023-04-05T10:15:15.870Z,101125.78
2023-04-05T10:18:18.857Z,101121.44
2023-04-05T10:20:50.293Z,101107.28
2023-04-05T10:23:24.495Z,101120.72
2023-04-05T10:25:57.068Z,101113.13
2023-04-05T10:28:26.171Z,101113.69
2023-04-05T10:31:12.885Z,101117.25
2023-04-05T10:33:47.563Z,101119.59
2023-04-05T10:36:27.011Z,101111.53
2023-04-05T10:39:17.969Z,101108.78
2023-04-05T10:41:49.516Z,101118.56
2023-04-05T10:44:25.859Z,101098.66
2023-04-05T10:46:57.979Z,101105.06
2023-04-05T10:49:56.256Z,101098.41
2023-04-05T10:52:23.066Z,101094.63
2023-04-05T10:54:52.595Z,101092.63
2023-04-05T10:57:20.842Z,101090.16
2023-04-05T10:59:48.989Z,101099.13
2023-04-05T11:02:16.736Z,101087.59
2023-04-05T11:04:43.258Z,101087.59
2023-04-05T11:07:20.115Z,101086.34
2023-04-05T11:09:55.389Z,101086.69
2023-04-05T11:12:53.710Z,101072.16
2023-04-05T11:15:27.549Z,101085.28
2023-04-05T11:18:04.810Z,101068.34
2023-04-05T11:20:40.820Z,101073.59
2023-04-05T11:23:07.967Z,101070.94
2023-04-05T11:25:39.927Z,101066.03
2023-04-05T11:28:09.307Z,101059.94
2023-04-05T11:30:49.424Z,101066.47
2023-04-05T11:33:39.762Z,101055.31
2023-04-05T11:36:06.810Z,101053.34
2023-04-05T11:38:33.644Z,101051.88
2023-04-05T11:41:17.432Z,101048.63
2023-04-05T11:43:47.608Z,101050.34
2023-04-05T11:46:18.361Z,101059.28
2023-04-05T11:48:51.052Z,101047.84
2023-04-05T11:51:23.445Z,101044.44
2023-04-05T11:53:50.240Z,101044.59
2023-04-05T11:56:16.675Z,101037.69
2023-04-05T11:58:43.102Z,101043.13
2023-04-05T12:01:09.661Z,101039.31
2023-04-05T12:03:37.467Z,101040.47
2023-04-05T12:06:06.441Z,101039.22
2023-04-05T12:08:43.398Z,101035.38
2023-04-05T12:11:11.635Z,101028.13
2023-04-05T12:13:38.952Z,101028.78
2023-04-05T12:16:06.913Z,101022.38
2023-04-05T12:18:35.570Z,101022.81
2023-04-05T12:21:06.973Z,101011.66
2023-04-05T12:23:34.387Z,101024.72
2023-04-05T12:26:01.520Z,101007.38
2023-04-05T12:28:58.305Z,101011.19
2023-04-05T12:31:43.834Z,101010.00
2023-04-05T12:34:12.193Z,101010.25
2023-04-05T12:36:48.616Z,101004.34
2023-04-05T12:39:17.209Z,101006.03
2023-04-05T12:41:43.683Z,100994.56
2023-04-05T12:44:16.608Z,100992.97
2023-04-05T12:46:45.300Z,100988.88
2023-04-05T12:49:20.935Z,100994.59
2023-04-05T12:51:48.411Z,100988.03
2023-04-05T12:54:23.206Z,100991.50
2023-04-05T12:56:54.400Z,100982.63
2023-04-05T12:59:21.542Z,100984.47
2023-04-05T13:01:48.281Z,100979.63
2023-04-05T13:04:16.865Z,100985.78
2023-04-05T13:06:46.574Z,100983.53
2023-04-05T13:09:13.200Z,100973.56
2023-04-05T13:11:42.019Z,100966.03
2023-04-05T13:14:08.859Z,100961.38
2023-04-05T13:16:37.808Z,100957.72
2023-04-05T13:19:04.283Z,100965.63
2023-04-05T13:21:30.964Z,100967.78
2023-04-05T13:23:57.507Z,100959.75
2023-04-05T13:26:23.955Z,100959.00
2023-04-05T13:28:50.470Z,100951.44
2023-04-05T13:31:21.973Z,100962.16
2023-04-05T13:33:48.380Z,100942.78
2023-04-05T13:36:14.856Z,100947.09
2023-04-05T13:38:41.309Z,100949.53
2023-04-05T13:41:08.002Z,100949.66
2023-04-05T13:43:34.514Z,100942.72
2023-04-05T13:46:00.946Z,100947.03
2023-04-05T13:48:29.546Z,100943.13
2023-04-05T13:50:56.052Z,100934.41
2023-04-05T13:53:22.648Z,100931.97
2023-04-05T13:55:49.075Z,100933.94
2023-04-05T13:58:16.329Z,100933.63
2023-04-05T14:00:43.209Z,100939.38
2023-04-05T14:03:09.992Z,100937.13
2023-04-05T14:05:36.624Z,100932.06
2023-04-05T14:08:03.193Z,100924.03
2023-04-05T14:10:31.574Z,100927.06
2023-04-05T14:12:58.140Z,100926.66
2023-04-05T14:15:24.791Z,100921.44
2023-04-05T14:17:51.292Z,100921.13
2023-04-05T14:20:17.744Z,100931.03
2023-04-05T14:22:44.334Z,100911.22
2023-04-05T14:25:10.720Z,100924.63
2023-04-05T14:27:42.424Z,100910.56
2023-04-05T14:30:10.325Z,100915.56
2023-04-05T14:32:36.751Z,100902.44
2023-04-05T14:35:03.180Z,100899.13
2023-04-05T14:37:29.878Z,100909.28
2023-04-05T14:39:56.392Z,100905.34
2023-04-05T14:42:23.822Z,100904.41
2023-04-05T14:44:52.253Z,100903.59
2023-04-05T14:47:18.805Z,100895.69
2023-04-05T14:49:45.195Z,100887.13
2023-04-05T14:52:14.354Z,100890.34
2023-04-05T14:54:41.204Z,100888.56
2023-04-05T14:57:07.567Z,100891.69
2023-04-05T14:59:36.385Z,100893.53
2023-04-05T15:02:03.729Z,100889.78
2023-04-05T15:04:30.212Z,100892.34
2023-04-05T15:06:56.877Z,100893.56
2023-04-05T15:09:25.706Z,100890.75
2023-04-05T15:11:57.216Z,100881.50
2023-04-05T15:14:32.238Z,100889.09
2023-04-05T15:16:59.222Z,100881.88
2023-04-05T15:19:25.845Z,100876.09
2023-04-05T15:21:52.374Z,100870.28
2023-04-05T15:24:21.515Z,100879.50
2023-04-05T15:26:50.580Z,100870.97
2023-04-05T15:29:19.753Z,100872.63
2023-04-05T15:31:46.212Z,100868.31
2023-04-05T15:34:12.714Z,100871.16
2023-04-05T15:36:39.425Z,100868.72
2023-04-05T15:39:08.640Z,100866.75
2023-04-05T15:41:35.407Z,100861.28
2023-04-05T15:44:04.720Z,100863.13
2023-04-05T15:46:31.266Z,100858.78
2023-04-05T15:48:57.637Z,100858.13
2023-04-05T15:51:26.674Z,100865.66
2023-04-05T15:53:53.066Z,100865.53
2023-04-05T15:56:21.960Z,100867.69
2023-04-05T15:58:48.583Z,100869.28
2023-04-05T16:01:14.987Z,100864.38
2023-04-05T16:03:41.912Z,100864.88
2023-04-05T16:06:08.525Z,100869.28
2023-04-05T16:08:35.070Z,100862.22
2023-04-05T16:11:04.062Z,100857.13
2023-04-05T16:13:30.724Z,100859.81
2023-04-05T16:15:57.299Z,100856.66
2023-04-05T16:18:24.285Z,100862.44
2023-04-05T16:20:52.956Z,100854.72
2023-04-05T16:23:19.396Z,100849.59
2023-04-05T16:25:45.750Z,100855.56
2023-04-05T16:28:12.129Z,100855.50
2023-04-05T16:30:38.713Z,100853.53
2023-04-05T16:33:05.310Z,100852.53
2023-04-05T16:35:31.810Z,100848.28
2023-04-05T16:38:00.563Z,100850.44
2023-04-05T16:40:26.993Z,100859.59
2023-04-05T16:42:54.295Z,100854.69
2023-04-05T16:45:20.750Z,100855.63
2023-04-05T16:47:49.738Z,100842.28
2023-04-05T16:50:21.195Z,100852.47
2023-04-05T16:52:47.539Z,100851.84
2023-04-05T16:55:14.054Z,100846.09
2023-04-05T16:57:43.088Z,100857.91
2023-04-05T17:00:09.970Z,100848.22
2023-04-05T17:02:38.865Z,100847.88
2023-04-05T17:05:06.320Z,100844.75
2023-04-05T17:07:35.348Z,100847.34
2023-04-05T17:10:04.581Z,100844.25
2023-04-05T17:12:33.729Z,100850.03
2023-04-05T17:15:00.205Z,100850.84
2023-04-05T17:17:34.113Z,100848.56
2023-04-05T17:20:03.471Z,100848.84
2023-04-05T17:22:31.513Z,100849.38
2023-04-05T17:24:57.988Z,100848.75
2023-04-05T17:27:27.537Z,100845.41
2023-04-05T17:29:53.856Z,100847.47
2023-04-05T17:32:20.454Z,100843.09
2023-04-05T17:34:46.883Z,100843.84
2023-04-05T17:37:13.241Z,100847.25
2023-04-05T17:39:39.704Z,100842.72
2023-04-05T17:42:06.167Z,100842.72
2023-04-05T17:44:32.892Z,100850.44
2023-04-05T17:47:08.420Z,100857.13
2023-04-05T17:49:37.646Z,100855.91
2023-04-05T17:52:08.009Z,100853.59
2023-04-05T17:54:37.061Z,100849.84
2023-04-05T17:57:07.148Z,100858.56
2023-04-05T17:59:35.234Z,100862.31
2023-04-05T18:02:01.796Z,100856.44
2023-04-05T18:04:28.230Z,100855.16
2023-04-05T18:06:57.257Z,100858.53
2023-04-05T18:09:23.931Z,100859.84
2023-04-05T18:11:50.491Z,100861.78
2023-04-05T18:14:16.812Z,100861.25
2023-04-05T18:16:43.355Z,100868.66
2023-04-05T18:19:09.989Z,100865.75
2023-04-05T18:21:36.426Z,100875.28
2023-04-05T18:24:06.255Z,100870.78
2023-04-05T18:26:33.900Z,100877.78
2023-04-05T18:29:00.282Z,100879.31
2023-04-05T18:31:28.360Z,100882.63
2023-04-05T18:33:54.961Z,100883.75
2023-04-05T18:36:21.359Z,100890.72
2023-04-05T18:38:47.674Z,100875.72
2023-04-05T18:41:15.205Z,100886.31
2023-04-05T18:43:41.574Z,100886.38
2023-04-05T18:46:08.124Z,100888.84
2023-04-05T18:48:38.936Z,100894.25
2023-04-05T18:51:07.686Z,100887.91
2023-04-05T18:53:34.408Z,100896.44
2023-04-05T18:56:00.944Z,100902.44
2023-04-05T18:58:27.306Z,100894.38
2023-04-05T19:00:53.727Z,100904.91
2023-04-05T19:03:20.521Z,100904.69
2023-04-05T19:05:52.621Z,100902.81
2023-04-05T19:08:19.781Z,100913.56
2023-04-05T19:10:46.405Z,100910.41
2023-04-05T19:13:15.565Z,100913.22
2023-04-05T19:15:47.629Z,100913.34
2023-04-05T19:18:14.263Z,100912.44
2023-04-05T19:20:40.628Z,100913.19
2023-04-05T19:23:07.144Z,100917.25
2023-04-05T19:25:33.714Z,100919.13
2023-04-05T19:28:00.105Z,100917.56
2023-04-05T19:30:27.332Z,100915.34
2023-04-05T19:32:56.994Z,100924.22
2023-04-05T19:35:26.014Z,100924.72
2023-04-05T19:37:52.456Z,100932.41
2023-04-05T19:40:19.958Z,100936.09
2023-04-05T19:42:47.513Z,100927.13
2023-04-05T19:45:21.123Z,100928.44
2023-04-05T19:47:48.590Z,100935.94
2023-04-05T19:50:41.965Z,100932.25
2023-04-05T19:53:09.050Z,100923.84
2023-04-05T19:55:38.368Z,100928.25
2023-04-05T19:58:09.717Z,100930.63
2023-04-05T20:00:46.956Z,100922.94
2023-04-05T20:03:30.176Z,100924.19
2023-04-05T20:06:07.298Z,100919.69
2023-04-05T20:08:39.061Z,100930.22
2023-04-05T20:11:10.848Z,100929.00
2023-04-05T20:13:51.825Z,100934.00
2023-04-05T20:16:25.671Z,100927.09
2023-04-05T20:18:54.430Z,100920.34
2023-04-05T20:21:21.121Z,100922.66
2023-04-05T20:23:47.668Z,100925.88
2023-04-05T20:26:17.041Z,100918.03
2023-04-05T20:28:53.224Z,100921.13
2023-04-05T20:31:25.486Z,100926.94
2023-04-05T20:34:01.214Z,100925.75
2023-04-05T20:36:33.184Z,100929.06
2023-04-05T20:39:01.407Z,100922.53
2023-04-05T20:41:28.515Z,100924.19
2023-04-05T20:43:56.513Z,100926.47
2023-04-05T20:46:23.244Z,100917.09
2023-04-05T20:48:53.783Z,100925.25
2023-04-05T20:51:20.277Z,100916.84
2023-04-05T20:53:47.013Z,100914.13
2023-04-05T20:56:16.740Z,100920.91
2023-04-05T20:58:43.201Z,100918.03
2023-04-05T21:01:10.313Z,100915.41
2023-04-05T21:03:39.566Z,100914.94
2023-04-05T21:06:11.784Z,100911.66
2023-04-05T21:08:39.808Z,100915.00
2023-04-05T21:11:11.602Z,100912.03
2023-04-05T21:13:39.071Z,100915.66
2023-04-05T21:16:06.139Z,100920.19
2023-04-05T21:18:33.239Z,100915.44
2023-04-05T21:21:00.484Z,100909.31
2023-04-05T21:23:28.295Z,100916.63
2023-04-05T21:25:58.483Z,100912.25
2023-04-05T21:28:26.318Z,100911.31
2023-04-05T21:30:53.273Z,100907.63
2023-04-05T21:33:20.219Z,100910.13
2023-04-05T21:35:46.830Z,100912.84
2023-04-05T21:38:15.567Z,100914.56
2023-04-05T21:40:44.534Z,100917.81
2023-04-05T21:43:13.730Z,100920.00
2023-04-05T21:45:42.387Z,100914.69
2023-04-05T21:48:08.792Z,100919.34
2023-04-05T21:50:35.656Z,100919.00
2023-04-05T21:53:07.445Z,100918.13
2023-04-05T21:55:33.824Z,100921.53
2023-04-05T21:58:05.085Z,100915.78
2023-04-05T22:00:31.577Z,100919.72
2023-04-05T22:02:58.065Z,100928.13
2023-04-05T22:05:36.291Z,100919.56
2023-04-05T22:08:07.324Z,100917.06
2023-04-05T22:10:34.890Z,100914.38
2023-04-05T22:13:03.981Z,100919.72
2023-04-05T22:15:30.573Z,100911.75
2023-04-05T22:17:57.109Z,100919.72
2023-04-05T22:20:23.476Z,100920.28
2023-04-05T22:22:54.766Z,100918.72
2023-04-05T22:25:21.819Z,100922.97
2023-04-05T22:27:48.331Z,100920.22
2023-04-05T22:30:14.809Z,100920.88
2023-04-05T22:32:41.442Z,100915.69
2023-04-05T22:35:08.178Z,100915.94
2023-04-05T22:37:40.716Z,100912.09
2023-04-05T22:40:07.423Z,100918.41
2023-04-05T22:42:33.826Z,100910.59
2023-04-05T22:45:02.926Z,100919.16
2023-04-05T22:47:29.649Z,100921.53
2023-04-05T22:49:56.014Z,100919.84
2023-04-05T22:52:27.315Z,100920.75
2023-04-05T22:54:53.761Z,100922.47
2023-04-05T22:57:20.521Z,100919.47
2023-04-05T22:59:46.957Z,100919.06
2023-04-05T23:02:13.386Z,100916.16
2023-04-05T23:04:39.947Z,100914.16
2023-04-05T23:07:06.480Z,100917.72
2023-04-05T23:09:33.053Z,100908.56
2023-04-05T23:12:04.346Z,100911.09
2023-04-05T23:14:38.080Z,100907.75
2023-04-05T23:17:05.417Z,100905.31
2023-04-05T23:19:32.142Z,100909.22
2023-04-05T23:21:58.930Z,100907.88
2023-04-05T23:24:25.300Z,100901.00
2023-04-05T23:26:52.103Z,100897.50
2023-04-05T23:29:18.780Z,100909.53
2023-04-05T23:31:45.911Z,100901.22
2023-04-05T23:34:14.946Z,100895.31
2023-04-05T23:36:46.459Z,100895.75
2023-04-05T23:39:13.699Z,100901.34
2023-04-05T23:42:01.316Z,100899.47
2023-04-05T23:44:27.666Z,100898.81
2023-04-05T23:46:56.468Z,100900.28
2023-04-05T23:49:28.055Z,100900.38
2023-04-05T23:51:55.278Z,100898.00
2023-04-05T23:54:21.899Z,100897.78
2023-04-05T23:56:49.108Z,100892.44
2023-04-05T23:59:15.950Z,100899.03
